Anabel, Missouri
Current Conditions -  °F | °C
As of 9:55 AM on Saturday 20 Dec 2014 (Local Time) from KIRK Reporting Station
Moderate Fog Moderate Fog  
Wind Chill: 29°   Ceiling: 200
Heat Index: 35°   Visibility: 0mi
Dew Point: 35°   Wind: 8mph
Humidity: 100%   Direction: 170°S
Pressure: 30.22"   Gusts: NA
Location:  39.75°N, 92.34°W
Report Text: KIRK 201555Z AUTO 17007KT M1/4SM FG VV002 02/02 A3022 RMK AO2 SLP244 T00170017
Loading
Personal Weather Stations






























Interactive Weather Map New forecast layout! Learn more

10-Day Weather Forecast

Advertisements
Track Severe Weather on mobile